createdAt,value
2023-06-24T00:02:08.811Z,2.57
2023-06-24T00:04:37.370Z,2.67
2023-06-24T00:07:05.940Z,2.97
2023-06-24T00:09:34.692Z,3.37
2023-06-24T00:12:06.106Z,3.23
2023-06-24T00:14:34.465Z,2.93
2023-06-24T00:17:03.069Z,3.10
2023-06-24T00:19:32.641Z,3.23
2023-06-24T00:22:04.628Z,2.90
2023-06-24T00:24:32.985Z,3.23
2023-06-24T00:27:01.306Z,3.30
2023-06-24T00:29:31.026Z,2.93
2023-06-24T00:31:59.406Z,3.43
2023-06-24T00:34:27.721Z,3.20
2023-06-24T00:36:56.459Z,3.10
2023-06-24T00:39:24.804Z,3.20
2023-06-24T00:41:53.201Z,3.30
2023-06-24T00:44:22.069Z,3.30
2023-06-24T00:46:51.780Z,3.53
2023-06-24T00:49:20.149Z,3.27
2023-06-24T00:51:51.469Z,3.13
2023-06-24T00:54:20.358Z,3.50
2023-06-24T00:56:49.113Z,3.60
2023-06-24T00:59:18.939Z,3.40
2023-06-24T01:01:54.102Z,3.83
2023-06-24T01:04:22.544Z,3.90
2023-06-24T01:06:51.726Z,3.30
2023-06-24T01:09:24.858Z,3.10
2023-06-24T01:11:53.227Z,4.03
2023-06-24T01:14:24.045Z,3.73
2023-06-24T01:17:01.640Z,4.00
2023-06-24T01:19:58.526Z,3.97
2023-06-24T01:23:28.839Z,3.80
2023-06-24T01:26:35.707Z,3.57
2023-06-24T01:29:51.658Z,4.33
2023-06-24T01:32:30.344Z,4.17
2023-06-24T01:35:03.111Z,4.57
2023-06-24T01:37:38.941Z,4.60
2023-06-24T01:40:14.809Z,4.23
2023-06-24T01:42:45.498Z,4.20
2023-06-24T01:45:18.896Z,4.67
2023-06-24T01:47:51.189Z,4.50
2023-06-24T01:50:24.394Z,4.33
2023-06-24T01:52:55.530Z,4.03
2023-06-24T01:55:25.907Z,4.27
2023-06-24T01:57:54.904Z,4.63
2023-06-24T02:00:28.113Z,4.03
2023-06-24T02:02:59.226Z,4.50
2023-06-24T02:05:28.721Z,4.47
2023-06-24T02:08:02.329Z,4.17
2023-06-24T02:10:32.899Z,4.50
2023-06-24T02:13:03.661Z,5.13
2023-06-24T02:15:35.847Z,4.13
2023-06-24T02:18:07.400Z,4.23
2023-06-24T02:20:36.494Z,4.43
2023-06-24T02:23:06.203Z,4.30
2023-06-24T02:25:35.470Z,4.43
2023-06-24T02:28:04.263Z,4.40
2023-06-24T02:30:33.080Z,4.50
2023-06-24T02:33:01.555Z,4.50
2023-06-24T02:35:31.541Z,4.20
2023-06-24T02:37:59.935Z,4.70
2023-06-24T02:40:29.258Z,4.20
2023-06-24T02:42:58.798Z,4.07
2023-06-24T02:45:27.786Z,4.20
2023-06-24T02:47:58.037Z,4.27
2023-06-24T02:50:27.862Z,4.43
2023-06-24T02:53:00.975Z,4.43
2023-06-24T02:55:30.100Z,4.37
2023-06-24T02:57:59.250Z,4.10
2023-06-24T03:00:32.302Z,4.67
2023-06-24T03:03:01.322Z,4.50
2023-06-24T03:05:34.082Z,4.70
2023-06-24T03:08:05.123Z,4.53
2023-06-24T03:10:38.408Z,4.30
2023-06-24T03:13:06.775Z,5.10
2023-06-24T03:15:35.363Z,4.10
2023-06-24T03:18:03.831Z,4.20
2023-06-24T03:20:41.677Z,4.93
2023-06-24T03:23:11.769Z,4.50
2023-06-24T03:25:40.157Z,4.20
2023-06-24T03:28:08.821Z,5.03
2023-06-24T03:30:37.338Z,4.67
2023-06-24T03:33:06.989Z,4.60
2023-06-24T03:35:35.570Z,4.97
2023-06-24T03:38:04.251Z,4.47
2023-06-24T03:40:39.498Z,4.70
2023-06-24T03:43:10.550Z,4.70
2023-06-24T03:45:39.009Z,4.97
2023-06-24T03:48:08.171Z,5.10
2023-06-24T03:50:39.384Z,4.87
2023-06-24T03:53:08.825Z,4.23
2023-06-24T03:55:38.545Z,4.70
2023-06-24T03:58:06.849Z,5.30
2023-06-24T04:00:35.195Z,5.03
2023-06-24T04:03:03.570Z,4.47
2023-06-24T04:05:35.048Z,5.00
2023-06-24T04:08:06.886Z,4.63
2023-06-24T04:10:35.162Z,4.30
2023-06-24T04:13:04.859Z,5.17
2023-06-24T04:15:33.335Z,4.90
2023-06-24T04:18:01.886Z,5.10
2023-06-24T04:20:33.037Z,4.23
2023-06-24T04:23:02.205Z,4.93
2023-06-24T04:25:30.479Z,4.77
2023-06-24T04:27:58.824Z,5.00
2023-06-24T04:30:28.492Z,4.87
2023-06-24T04:32:56.885Z,4.00
2023-06-24T04:35:26.174Z,4.87
2023-06-24T04:37:54.536Z,4.80
2023-06-24T04:40:22.833Z,4.20
2023-06-24T04:42:51.336Z,4.80
2023-06-24T04:45:19.667Z,4.90
2023-06-24T04:47:49.472Z,5.57
2023-06-24T04:50:17.873Z,4.90
2023-06-24T04:52:48.030Z,4.47
2023-06-24T04:55:19.164Z,4.90
2023-06-24T04:57:47.500Z,4.80
2023-06-24T05:00:16.853Z,4.67
2023-06-24T05:02:45.276Z,4.80
2023-06-24T05:05:15.042Z,4.83
2023-06-24T05:07:43.454Z,4.70
2023-06-24T05:10:11.851Z,4.63
2023-06-24T05:12:40.171Z,4.73
2023-06-24T05:15:10.541Z,4.70
2023-06-24T05:17:39.180Z,4.90
2023-06-24T05:20:09.226Z,4.63
2023-06-24T05:22:39.071Z,4.87
2023-06-24T05:25:08.640Z,4.33
2023-06-24T05:27:39.862Z,4.77
2023-06-24T05:30:10.109Z,4.77
2023-06-24T05:32:38.445Z,4.60
2023-06-24T05:35:08.201Z,4.50
2023-06-24T05:37:37.890Z,4.73
2023-06-24T05:40:08.690Z,5.10
2023-06-24T05:42:37.052Z,4.70
2023-06-24T05:45:07.258Z,4.90
2023-06-24T05:47:35.651Z,5.10
2023-06-24T05:50:04.088Z,4.40
2023-06-24T05:52:32.377Z,4.80
2023-06-24T05:55:02.065Z,4.60
2023-06-24T05:57:33.165Z,5.73
2023-06-24T06:00:01.607Z,5.07
2023-06-24T06:02:29.991Z,4.50
2023-06-24T06:05:03.975Z,5.27
2023-06-24T06:07:32.303Z,4.57
2023-06-24T06:10:02.029Z,4.40
2023-06-24T06:12:30.311Z,5.17
2023-06-24T06:14:58.627Z,4.90
2023-06-24T06:17:26.976Z,4.67
2023-06-24T06:19:55.384Z,5.37
2023-06-24T06:22:23.721Z,5.53
2023-06-24T06:24:52.091Z,4.73
2023-06-24T06:27:21.761Z,5.53
2023-06-24T06:29:50.065Z,5.67
2023-06-24T06:32:18.379Z,5.17
2023-06-24T06:34:52.942Z,5.47
2023-06-24T06:37:21.305Z,4.93
2023-06-24T06:39:49.626Z,5.17
2023-06-24T06:42:53.734Z,5.80
2023-06-24T06:45:24.699Z,5.07
2023-06-24T06:47:53.290Z,5.20
2023-06-24T06:50:21.827Z,5.33
2023-06-24T06:52:50.192Z,5.23
2023-06-24T06:55:21.195Z,5.00
2023-06-24T06:57:49.825Z,5.30
2023-06-24T07:00:22.648Z,5.03
2023-06-24T07:02:51.109Z,5.93
2023-06-24T07:05:25.076Z,5.30
2023-06-24T07:07:54.869Z,6.13
2023-06-24T07:10:23.434Z,5.53
2023-06-24T07:12:52.272Z,4.57
2023-06-24T07:15:22.054Z,5.13
2023-06-24T07:17:50.437Z,4.47
2023-06-24T07:20:18.804Z,4.57
2023-06-24T07:22:47.083Z,5.20
2023-06-24T07:25:15.631Z,4.63
2023-06-24T07:27:43.950Z,4.57
2023-06-24T07:30:12.929Z,4.20
2023-06-24T07:32:42.661Z,4.60
2023-06-24T07:35:11.558Z,4.20
2023-06-24T07:37:39.925Z,3.97
2023-06-24T07:40:10.375Z,3.70
2023-06-24T07:42:38.787Z,3.87
2023-06-24T07:45:08.589Z,3.33
2023-06-24T07:47:37.035Z,3.90
2023-06-24T07:50:12.008Z,4.07
2023-06-24T07:52:40.638Z,4.37
2023-06-24T07:55:09.997Z,4.10
2023-06-24T07:57:38.368Z,3.87
2023-06-24T08:00:11.144Z,3.80
2023-06-24T08:02:39.529Z,3.80
2023-06-24T08:05:11.079Z,3.80
2023-06-24T08:07:40.500Z,3.77
2023-06-24T08:10:12.545Z,3.83
2023-06-24T08:12:40.839Z,3.80
2023-06-24T08:15:10.406Z,3.83
2023-06-24T08:17:39.032Z,3.80
2023-06-24T08:20:13.639Z,3.90
2023-06-24T08:22:41.966Z,4.33
2023-06-24T08:25:10.845Z,4.17
2023-06-24T08:27:39.770Z,3.43
2023-06-24T08:30:15.253Z,3.90
2023-06-24T08:32:43.719Z,4.70
2023-06-24T08:35:13.775Z,4.60
2023-06-24T08:37:42.771Z,4.40
2023-06-24T08:40:12.164Z,4.20
2023-06-24T08:42:40.479Z,4.43
2023-06-24T08:45:12.722Z,4.30
2023-06-24T08:47:43.161Z,4.43
2023-06-24T08:50:15.015Z,4.53
2023-06-24T08:52:47.933Z,4.37
2023-06-24T08:55:28.232Z,5.00
2023-06-24T08:57:56.633Z,4.50
2023-06-24T09:00:25.557Z,4.27
2023-06-24T09:02:53.903Z,4.47
2023-06-24T09:05:23.677Z,5.20
2023-06-24T09:07:52.042Z,4.07
2023-06-24T09:10:37.010Z,4.70
2023-06-24T09:13:07.618Z,4.20
2023-06-24T09:15:37.179Z,4.47
2023-06-24T09:18:06.762Z,4.67
2023-06-24T09:20:45.784Z,4.53
2023-06-24T09:23:14.343Z,4.53
2023-06-24T09:25:45.051Z,4.07
2023-06-24T09:28:16.053Z,4.73
2023-06-24T09:30:53.763Z,4.60
2023-06-24T09:33:24.963Z,5.60
2023-06-24T09:35:55.143Z,4.40
2023-06-24T09:38:35.834Z,4.90
2023-06-24T09:41:16.268Z,4.60
2023-06-24T09:43:46.247Z,4.70
2023-06-24T09:46:15.100Z,4.73
2023-06-24T09:48:43.446Z,5.30
2023-06-24T09:51:15.680Z,4.87
2023-06-24T09:53:45.795Z,4.30
2023-06-24T09:56:16.500Z,4.53
2023-06-24T09:58:46.921Z,5.33
2023-06-24T10:01:17.637Z,4.50
2023-06-24T10:03:46.476Z,4.07
2023-06-24T10:06:16.518Z,3.97
2023-06-24T10:08:47.896Z,4.27
2023-06-24T10:11:16.270Z,4.10
2023-06-24T10:13:44.738Z,4.37
2023-06-24T10:16:13.314Z,4.00
2023-06-24T10:18:42.434Z,4.35
2023-06-24T10:21:11.736Z,4.20
2023-06-24T10:23:54.254Z,3.97
2023-06-24T10:26:29.487Z,3.57
2023-06-24T10:29:18.583Z,3.70
2023-06-24T10:31:56.972Z,3.50
2023-06-24T10:34:33.727Z,3.87
2023-06-24T10:37:04.324Z,3.33
2023-06-24T10:39:51.466Z,3.40
2023-06-24T10:42:44.910Z,3.30
2023-06-24T10:45:19.878Z,3.20
2023-06-24T10:47:50.529Z,3.20
2023-06-24T10:50:22.476Z,2.95
2023-06-24T10:52:56.218Z,2.90
2023-06-24T10:55:27.467Z,3.08
2023-06-24T10:57:56.244Z,2.70
2023-06-24T11:00:24.644Z,2.63
2023-06-24T11:02:53.064Z,2.88
2023-06-24T11:05:21.467Z,3.03
2023-06-24T11:07:49.812Z,3.50
2023-06-24T11:10:18.632Z,4.00
2023-06-24T11:12:48.836Z,3.35
2023-06-24T11:15:17.255Z,3.47
2023-06-24T11:17:45.761Z,3.40
2023-06-24T11:20:16.013Z,3.90
2023-06-24T11:22:45.864Z,3.22
2023-06-24T11:25:18.801Z,3.20
2023-06-24T11:27:48.866Z,3.22
2023-06-24T11:30:18.856Z,3.15
2023-06-24T11:32:49.029Z,3.55
2023-06-24T11:35:18.219Z,3.60
2023-06-24T11:37:49.183Z,3.45
2023-06-24T11:40:21.463Z,6.00
2023-06-24T11:42:52.177Z,3.28
2023-06-24T11:45:24.073Z,3.58
2023-06-24T11:47:53.453Z,3.38
2023-06-24T11:50:29.129Z,3.53
2023-06-24T11:52:57.598Z,3.90
2023-06-24T11:55:29.865Z,3.17
2023-06-24T11:58:02.646Z,3.20
2023-06-24T12:00:34.033Z,2.95
2023-06-24T12:03:05.864Z,3.05
2023-06-24T12:05:37.841Z,2.72
2023-06-24T12:08:10.134Z,3.33
2023-06-24T12:10:40.591Z,2.78
2023-06-24T12:13:10.657Z,3.30
2023-06-24T12:15:39.427Z,3.05
2023-06-24T12:18:07.885Z,3.22
2023-06-24T12:20:38.967Z,2.85
2023-06-24T12:23:08.255Z,3.60
2023-06-24T12:25:36.660Z,3.55
2023-06-24T12:28:05.182Z,3.20
2023-06-24T12:30:35.243Z,3.42
2023-06-24T12:33:04.242Z,3.58
2023-06-24T12:35:35.593Z,3.35
2023-06-24T12:38:03.990Z,3.22
2023-06-24T12:40:32.365Z,3.05
2023-06-24T12:43:01.051Z,3.45
2023-06-24T12:45:29.393Z,3.30
2023-06-24T12:48:00.417Z,3.47
2023-06-24T12:50:28.889Z,3.28
2023-06-24T12:52:57.315Z,3.30
2023-06-24T12:55:25.719Z,3.10
2023-06-24T12:57:54.109Z,3.22
2023-06-24T13:00:23.614Z,3.47
2023-06-24T13:02:52.779Z,3.30
2023-06-24T13:05:23.328Z,3.22
2023-06-24T13:07:51.868Z,3.97
2023-06-24T13:10:20.655Z,3.47
2023-06-24T13:12:51.362Z,3.70
2023-06-24T13:15:21.017Z,3.58
2023-06-24T13:17:49.430Z,3.53
2023-06-24T13:20:18.088Z,3.38
2023-06-24T13:22:47.882Z,3.50
2023-06-24T13:25:17.013Z,3.45
2023-06-24T13:27:46.295Z,3.55
2023-06-24T13:30:22.922Z,3.60
2023-06-24T13:32:51.421Z,3.30
2023-06-24T13:35:19.878Z,3.63
2023-06-24T13:37:49.735Z,3.50
2023-06-24T13:40:18.331Z,3.50
2023-06-24T13:42:46.702Z,3.10
2023-06-24T13:45:15.050Z,2.85
2023-06-24T13:47:54.432Z,3.80
2023-06-24T13:50:22.915Z,3.35
2023-06-24T13:52:52.702Z,3.05
2023-06-24T13:55:21.034Z,3.65
2023-06-24T13:57:49.478Z,3.30
2023-06-24T14:00:19.120Z,3.90
2023-06-24T14:02:47.604Z,3.55
2023-06-24T14:05:16.090Z,3.45
2023-06-24T14:07:44.608Z,3.40
2023-06-24T14:10:14.513Z,3.60
2023-06-24T14:12:43.756Z,3.65
2023-06-24T14:15:12.896Z,3.42
2023-06-24T14:17:41.176Z,3.50
2023-06-24T14:20:11.521Z,3.55
2023-06-24T14:22:39.912Z,3.10
2023-06-24T14:25:17.921Z,3.20
2023-06-24T14:27:46.913Z,3.33
2023-06-24T14:30:15.558Z,3.58
2023-06-24T14:32:43.941Z,2.90
2023-06-24T14:35:12.363Z,2.85
2023-06-24T14:37:40.688Z,3.50
2023-06-24T14:40:18.171Z,3.28
2023-06-24T14:42:46.460Z,3.38
2023-06-24T14:45:14.991Z,2.85
2023-06-24T14:47:43.417Z,2.83
2023-06-24T14:50:17.228Z,2.95
2023-06-24T14:52:45.721Z,3.05
2023-06-24T14:55:14.169Z,3.03
2023-06-24T14:57:43.892Z,3.20
2023-06-24T15:00:14.543Z,3.20
2023-06-24T15:02:43.044Z,3.22
2023-06-24T15:05:11.566Z,3.00
2023-06-24T15:07:39.966Z,3.22
2023-06-24T15:10:09.693Z,3.42
2023-06-24T15:12:38.780Z,3.08
2023-06-24T15:15:09.657Z,2.72
2023-06-24T15:17:41.269Z,3.03
2023-06-24T15:20:17.081Z,3.00
2023-06-24T15:22:45.445Z,3.08
2023-06-24T15:25:14.410Z,3.03
2023-06-24T15:27:42.818Z,2.63
2023-06-24T15:30:14.264Z,3.45
2023-06-24T15:32:43.780Z,3.00
2023-06-24T15:35:12.266Z,2.88
2023-06-24T15:37:40.643Z,2.80
2023-06-24T15:40:13.024Z,3.38
2023-06-24T15:42:41.484Z,3.58
2023-06-24T15:45:12.268Z,3.10
2023-06-24T15:47:40.636Z,3.13
2023-06-24T15:50:10.840Z,3.03
2023-06-24T15:52:39.879Z,3.05
2023-06-24T15:55:10.705Z,3.22
2023-06-24T15:57:39.142Z,2.90
2023-06-24T16:00:11.548Z,2.72
2023-06-24T16:02:41.446Z,2.92
2023-06-24T16:05:10.620Z,3.20
2023-06-24T16:07:39.040Z,3.25
2023-06-24T16:10:10.943Z,2.90
2023-06-24T16:12:39.355Z,2.92
2023-06-24T16:15:09.492Z,3.15
2023-06-24T16:17:41.814Z,3.22
2023-06-24T16:20:15.587Z,3.33
2023-06-24T16:22:44.108Z,3.22
2023-06-24T16:25:12.983Z,3.47
2023-06-24T16:27:41.698Z,2.83
2023-06-24T16:30:10.917Z,3.00
2023-06-24T16:32:39.313Z,3.65
2023-06-24T16:35:09.597Z,3.00
2023-06-24T16:37:42.425Z,3.30
2023-06-24T16:40:11.752Z,3.03
2023-06-24T16:42:40.087Z,3.00
2023-06-24T16:45:12.521Z,2.78
2023-06-24T16:47:41.019Z,3.55
2023-06-24T16:50:11.183Z,3.40
2023-06-24T16:52:41.000Z,3.63
2023-06-24T16:55:14.500Z,3.10
2023-06-24T16:57:43.451Z,3.17
2023-06-24T17:00:13.450Z,3.05
2023-06-24T17:02:42.608Z,3.10
2023-06-24T17:05:11.350Z,3.03
2023-06-24T17:07:41.086Z,3.38
2023-06-24T17:10:10.123Z,3.13
2023-06-24T17:12:39.780Z,3.42
2023-06-24T17:15:11.364Z,3.22
2023-06-24T17:17:39.826Z,2.92
2023-06-24T17:20:10.418Z,2.80
2023-06-24T17:22:40.168Z,3.08
2023-06-24T17:25:09.671Z,3.40
2023-06-24T17:27:38.041Z,2.90
2023-06-24T17:30:10.828Z,3.30
2023-06-24T17:32:39.271Z,3.25
2023-06-24T17:35:08.872Z,2.70
2023-06-24T17:37:37.252Z,3.22
2023-06-24T17:40:09.233Z,3.03
2023-06-24T17:42:37.760Z,3.00
2023-06-24T17:45:07.828Z,3.10
2023-06-24T17:47:36.331Z,3.07
2023-06-24T17:50:05.467Z,3.10
2023-06-24T17:52:33.874Z,3.30
2023-06-24T17:55:03.014Z,3.30
2023-06-24T17:57:32.901Z,3.03
2023-06-24T18:00:01.297Z,3.00
2023-06-24T18:02:32.174Z,2.90
2023-06-24T18:05:05.317Z,2.90
2023-06-24T18:07:33.966Z,2.87
2023-06-24T18:10:02.590Z,2.67
2023-06-24T18:12:32.446Z,2.90
2023-06-24T18:15:06.467Z,2.80
2023-06-24T18:17:34.907Z,3.13
2023-06-24T18:20:06.470Z,3.20
2023-06-24T18:22:34.808Z,3.03
2023-06-24T18:25:03.969Z,3.13
2023-06-24T18:27:33.824Z,3.03
2023-06-24T18:30:07.331Z,3.17
2023-06-24T18:32:35.722Z,2.90
2023-06-24T18:35:04.305Z,3.57
2023-06-24T18:37:32.948Z,3.53
2023-06-24T18:40:03.535Z,3.20
2023-06-24T18:42:33.344Z,3.40
2023-06-24T18:45:04.600Z,3.30
2023-06-24T18:47:33.052Z,4.20
2023-06-24T18:50:05.360Z,4.97
2023-06-24T18:52:33.720Z,4.17
2023-06-24T18:55:05.029Z,3.60
2023-06-24T18:57:34.817Z,3.30
2023-06-24T19:00:06.288Z,3.43
2023-06-24T19:02:34.848Z,3.50
2023-06-24T19:05:03.307Z,3.57
2023-06-24T19:07:31.933Z,3.30
2023-06-24T19:10:01.891Z,3.60
2023-06-24T19:12:34.031Z,3.53
2023-06-24T19:15:02.421Z,2.67
2023-06-24T19:17:31.039Z,3.17
2023-06-24T19:19:59.440Z,3.40
2023-06-24T19:22:27.777Z,3.17
2023-06-24T19:24:56.197Z,3.53
2023-06-24T19:27:25.061Z,3.10
2023-06-24T19:29:54.864Z,3.73
2023-06-24T19:32:23.395Z,3.20
2023-06-24T19:34:51.897Z,3.30
2023-06-24T19:37:20.313Z,3.80
2023-06-24T19:39:48.716Z,3.10
2023-06-24T19:42:17.064Z,3.47
2023-06-24T19:44:45.568Z,3.53
2023-06-24T19:47:17.884Z,3.53
2023-06-24T19:49:52.716Z,3.73
2023-06-24T19:52:21.498Z,3.90
2023-06-24T19:54:50.901Z,3.60
2023-06-24T19:57:21.064Z,3.70
2023-06-24T19:59:49.636Z,3.70
2023-06-24T20:02:19.484Z,3.17
2023-06-24T20:04:48.163Z,3.97
2023-06-24T20:07:17.400Z,3.83
2023-06-24T20:09:46.075Z,3.60
2023-06-24T20:12:14.553Z,4.33
2023-06-24T20:14:42.962Z,3.93
2023-06-24T20:17:11.354Z,3.73
2023-06-24T20:19:41.199Z,3.80
2023-06-24T20:22:09.966Z,4.27
2023-06-24T20:24:38.363Z,3.80
2023-06-24T20:27:07.322Z,4.47
2023-06-24T20:29:35.632Z,4.77
2023-06-24T20:32:03.991Z,3.83
2023-06-24T20:34:32.341Z,3.80
2023-06-24T20:37:02.118Z,3.77
2023-06-24T20:39:30.386Z,3.27
2023-06-24T20:41:59.261Z,3.60
2023-06-24T20:44:27.650Z,4.00
2023-06-24T20:46:56.101Z,4.30
2023-06-24T20:49:24.453Z,4.40
2023-06-24T20:51:52.744Z,4.60
2023-06-24T20:54:22.692Z,4.50
2023-06-24T20:56:51.861Z,3.93
2023-06-24T20:59:20.147Z,4.33
2023-06-24T21:01:48.528Z,4.37
2023-06-24T21:04:17.297Z,3.50
2023-06-24T21:06:45.808Z,3.87
2023-06-24T21:09:14.382Z,4.10
2023-06-24T21:11:44.117Z,4.10
2023-06-24T21:14:12.444Z,3.90
2023-06-24T21:16:40.852Z,4.27
2023-06-24T21:19:09.667Z,4.00
2023-06-24T21:21:38.051Z,4.07
2023-06-24T21:24:08.473Z,4.43
2023-06-24T21:26:36.817Z,3.73
2023-06-24T21:29:06.516Z,4.07
2023-06-24T21:31:34.901Z,4.37
2023-06-24T21:34:03.310Z,3.60
2023-06-24T21:36:31.648Z,3.83
2023-06-24T21:38:59.946Z,4.13
2023-06-24T21:41:28.441Z,3.77
2023-06-24T21:43:57.624Z,4.07
2023-06-24T21:46:27.454Z,4.37
2023-06-24T21:48:55.854Z,4.83
2023-06-24T21:51:24.195Z,4.80
2023-06-24T21:53:52.509Z,4.50
2023-06-24T21:56:20.876Z,4.40
2023-06-24T21:58:49.211Z,5.00
2023-06-24T22:01:18.070Z,5.43
2023-06-24T22:03:47.791Z,4.33
2023-06-24T22:06:16.210Z,4.37
2023-06-24T22:08:44.598Z,4.40
2023-06-24T22:11:12.982Z,4.90
2023-06-24T22:13:41.369Z,4.30
2023-06-24T22:16:11.762Z,4.50
2023-06-24T22:18:40.188Z,4.40
2023-06-24T22:21:09.919Z,4.17
2023-06-24T22:23:38.303Z,4.33
2023-06-24T22:26:06.730Z,4.33
2023-06-24T22:28:35.054Z,4.30
2023-06-24T22:31:03.596Z,3.87
2023-06-24T22:33:32.131Z,4.27
2023-06-24T22:36:00.551Z,4.60
2023-06-24T22:38:30.263Z,5.17
2023-06-24T22:40:58.681Z,4.70
2023-06-24T22:43:28.114Z,4.67
2023-06-24T22:45:56.566Z,4.87
2023-06-24T22:48:24.960Z,4.77
2023-06-24T22:50:53.392Z,4.67
2023-06-24T22:53:21.787Z,4.43
2023-06-24T22:55:51.533Z,5.07
2023-06-24T22:58:19.938Z,4.80
2023-06-24T23:00:48.261Z,4.67
2023-06-24T23:03:17.588Z,4.60
2023-06-24T23:05:46.724Z,4.43
2023-06-24T23:08:15.785Z,5.20
2023-06-24T23:10:44.935Z,4.87
2023-06-24T23:13:15.217Z,5.00
2023-06-24T23:15:44.885Z,5.13
2023-06-24T23:18:13.694Z,4.53
2023-06-24T23:20:43.665Z,4.43
2023-06-24T23:23:14.775Z,5.30
2023-06-24T23:25:43.770Z,5.30
2023-06-24T23:28:17.235Z,5.10
2023-06-24T23:30:47.513Z,5.27
2023-06-24T23:33:18.253Z,5.47
2023-06-24T23:35:49.911Z,5.40
2023-06-24T23:38:20.764Z,5.30
2023-06-24T23:40:50.143Z,5.03
2023-06-24T23:43:21.617Z,5.77
2023-06-24T23:45:52.454Z,5.63
2023-06-24T23:48:21.204Z,5.70
2023-06-24T23:50:49.546Z,5.50
2023-06-24T23:53:17.983Z,5.20
2023-06-24T23:55:46.344Z,5.37
2023-06-24T23:58:14.704Z,5.23
